Terminal Aerodrome Forecast
Issued by NWS Wichita, KS

Home | Current Version | Previous Version | Graphics & Text | Print | Product List | Glossary On
Versions: 1 2 3 4 5 6 7 8 9 10 11 12 13 14 15 16 17 18 19 20 21 22 23 24 25
240
FTUS43 KICT 241720
TAFICT
TAF
KICT 241720Z 2418/2518 11013G22KT P6SM SCT035
     FM250200 15016G23KT P6SM VCTS SCT035CB BKN060
     FM250800 16013KT P6SM BKN015=

USA.gov is the U.S. government's official web portal to all federal, state and local government web resources and services.